sensor_id;sensor_type;location;lat;lon;timestamp;temperature;humidity
12477;DHT22;6303;51.504;6.300;2022-12-10T00:01:09;19.90;49.30
12477;DHT22;6303;51.504;6.300;2022-12-10T00:03:36;19.90;49.30
12477;DHT22;6303;51.504;6.300;2022-12-10T00:06:07;19.90;48.80
12477;DHT22;6303;51.504;6.300;2022-12-10T00:08:34;19.90;49.40
12477;DHT22;6303;51.504;6.300;2022-12-10T00:11:02;19.90;49.90
12477;DHT22;6303;51.504;6.300;2022-12-10T00:13:29;19.90;49.40
12477;DHT22;6303;51.504;6.300;2022-12-10T00:15:59;19.80;49.50
12477;DHT22;6303;51.504;6.300;2022-12-10T00:18:26;19.80;49.60
12477;DHT22;6303;51.504;6.300;2022-12-10T00:20:53;19.90;49.80
12477;DHT22;6303;51.504;6.300;2022-12-10T00:23:21;19.80;49.70
12477;DHT22;6303;51.504;6.300;2022-12-10T00:25:49;19.80;50.00
12477;DHT22;6303;51.504;6.300;2022-12-10T00:28:16;19.80;50.40
12477;DHT22;6303;51.504;6.300;2022-12-10T00:30:43;19.80;49.90
12477;DHT22;6303;51.504;6.300;2022-12-10T00:33:11;19.80;49.90
12477;DHT22;6303;51.504;6.300;2022-12-10T00:35:38;19.80;49.90
12477;DHT22;6303;51.504;6.300;2022-12-10T00:38:05;19.80;49.90
12477;DHT22;6303;51.504;6.300;2022-12-10T00:40:34;19.80;50.00
12477;DHT22;6303;51.504;6.300;2022-12-10T00:43:01;19.70;49.90
12477;DHT22;6303;51.504;6.300;2022-12-10T00:45:28;19.70;49.90
12477;DHT22;6303;51.504;6.300;2022-12-10T00:47:55;19.70;49.90
12477;DHT22;6303;51.504;6.300;2022-12-10T00:50:23;19.70;50.00
12477;DHT22;6303;51.504;6.300;2022-12-10T00:52:50;19.70;49.90
12477;DHT22;6303;51.504;6.300;2022-12-10T00:55:17;19.70;49.90
12477;DHT22;6303;51.504;6.300;2022-12-10T00:57:46;19.70;49.90
12477;DHT22;6303;51.504;6.300;2022-12-10T01:00:13;19.70;50.50
12477;DHT22;6303;51.504;6.300;2022-12-10T01:02:40;19.70;50.00
12477;DHT22;6303;51.504;6.300;2022-12-10T01:05:08;19.60;49.90
12477;DHT22;6303;51.504;6.300;2022-12-10T01:07:35;19.60;49.90
12477;DHT22;6303;51.504;6.300;2022-12-10T01:10:02;19.60;49.80
12477;DHT22;6303;51.504;6.300;2022-12-10T01:12:29;19.60;49.70
12477;DHT22;6303;51.504;6.300;2022-12-10T01:14:58;19.60;49.70
12477;DHT22;6303;51.504;6.300;2022-12-10T01:17:25;19.60;49.80
12477;DHT22;6303;51.504;6.300;2022-12-10T01:19:52;19.60;49.80
12477;DHT22;6303;51.504;6.300;2022-12-10T01:22:19;19.60;49.80
12477;DHT22;6303;51.504;6.300;2022-12-10T01:24:46;19.60;49.80
12477;DHT22;6303;51.504;6.300;2022-12-10T01:27:13;19.60;49.80
12477;DHT22;6303;51.504;6.300;2022-12-10T01:29:40;19.60;49.80
12477;DHT22;6303;51.504;6.300;2022-12-10T01:32:09;19.60;49.80
12477;DHT22;6303;51.504;6.300;2022-12-10T01:34:38;19.60;49.80
12477;DHT22;6303;51.504;6.300;2022-12-10T01:37:05;19.60;49.90
12477;DHT22;6303;51.504;6.300;2022-12-10T01:39:32;19.60;50.20
12477;DHT22;6303;51.504;6.300;2022-12-10T01:42:00;19.60;50.30
12477;DHT22;6303;51.504;6.300;2022-12-10T01:45:00;19.60;50.30
12477;DHT22;6303;51.504;6.300;2022-12-10T01:47:29;19.60;50.30
12477;DHT22;6303;51.504;6.300;2022-12-10T01:49:58;19.50;50.20
12477;DHT22;6303;51.504;6.300;2022-12-10T01:52:26;19.50;50.20
12477;DHT22;6303;51.504;6.300;2022-12-10T01:54:55;19.50;50.20
12477;DHT22;6303;51.504;6.300;2022-12-10T01:57:24;19.50;50.10
12477;DHT22;6303;51.504;6.300;2022-12-10T01:59:54;19.50;50.10
12477;DHT22;6303;51.504;6.300;2022-12-10T02:02:35;19.50;50.00
12477;DHT22;6303;51.504;6.300;2022-12-10T02:05:17;19.50;50.10
12477;DHT22;6303;51.504;6.300;2022-12-10T02:08:02;19.50;50.00
12477;DHT22;6303;51.504;6.300;2022-12-10T02:10:41;19.50;49.90
12477;DHT22;6303;51.504;6.300;2022-12-10T02:13:14;19.50;49.80
12477;DHT22;6303;51.504;6.300;2022-12-10T02:15:49;19.40;49.90
12477;DHT22;6303;51.504;6.300;2022-12-10T02:18:24;19.40;49.80
12477;DHT22;6303;51.504;6.300;2022-12-10T02:20:54;19.40;49.80
12477;DHT22;6303;51.504;6.300;2022-12-10T02:23:25;19.50;49.70
12477;DHT22;6303;51.504;6.300;2022-12-10T02:25:58;19.40;49.60
12477;DHT22;6303;51.504;6.300;2022-12-10T02:28:34;19.40;49.60
12477;DHT22;6303;51.504;6.300;2022-12-10T02:31:07;19.40;49.60
12477;DHT22;6303;51.504;6.300;2022-12-10T02:33:42;19.40;49.60
12477;DHT22;6303;51.504;6.300;2022-12-10T02:36:13;19.40;49.60
12477;DHT22;6303;51.504;6.300;2022-12-10T02:38:42;19.40;49.60
12477;DHT22;6303;51.504;6.300;2022-12-10T02:41:15;19.40;49.60
12477;DHT22;6303;51.504;6.300;2022-12-10T02:43:43;19.40;49.60
12477;DHT22;6303;51.504;6.300;2022-12-10T02:46:13;19.40;49.60
12477;DHT22;6303;51.504;6.300;2022-12-10T02:48:42;19.40;49.60
12477;DHT22;6303;51.504;6.300;2022-12-10T02:51:09;19.40;49.60
12477;DHT22;6303;51.504;6.300;2022-12-10T02:53:41;19.40;49.60
12477;DHT22;6303;51.504;6.300;2022-12-10T02:56:14;19.40;49.50
12477;DHT22;6303;51.504;6.300;2022-12-10T02:58:54;19.40;49.50
12477;DHT22;6303;51.504;6.300;2022-12-10T03:01:35;19.40;49.50
12477;DHT22;6303;51.504;6.300;2022-12-10T03:04:11;19.30;49.40
12477;DHT22;6303;51.504;6.300;2022-12-10T03:06:42;19.40;49.40
12477;DHT22;6303;51.504;6.300;2022-12-10T03:09:16;19.40;49.30
12477;DHT22;6303;51.504;6.300;2022-12-10T03:11:45;19.40;49.30
12477;DHT22;6303;51.504;6.300;2022-12-10T03:14:15;19.40;49.30
12477;DHT22;6303;51.504;6.300;2022-12-10T03:16:49;19.40;49.30
12477;DHT22;6303;51.504;6.300;2022-12-10T03:19:20;19.30;49.30
12477;DHT22;6303;51.504;6.300;2022-12-10T03:21:50;19.30;49.30
12477;DHT22;6303;51.504;6.300;2022-12-10T03:24:22;19.30;49.30
12477;DHT22;6303;51.504;6.300;2022-12-10T03:26:52;19.30;49.30
12477;DHT22;6303;51.504;6.300;2022-12-10T03:29:23;19.30;49.30
12477;DHT22;6303;51.504;6.300;2022-12-10T03:31:54;19.30;49.30
12477;DHT22;6303;51.504;6.300;2022-12-10T03:34:22;19.30;49.30
12477;DHT22;6303;51.504;6.300;2022-12-10T03:36:50;19.30;49.20
12477;DHT22;6303;51.504;6.300;2022-12-10T03:39:18;19.30;49.20
12477;DHT22;6303;51.504;6.300;2022-12-10T03:41:45;19.30;49.20
12477;DHT22;6303;51.504;6.300;2022-12-10T03:44:12;19.30;49.20
12477;DHT22;6303;51.504;6.300;2022-12-10T03:46:39;19.30;49.20
12477;DHT22;6303;51.504;6.300;2022-12-10T03:49:08;19.30;49.30
12477;DHT22;6303;51.504;6.300;2022-12-10T03:51:36;19.30;49.20
12477;DHT22;6303;51.504;6.300;2022-12-10T03:54:03;19.30;49.20
12477;DHT22;6303;51.504;6.300;2022-12-10T03:56:30;19.30;49.10
12477;DHT22;6303;51.504;6.300;2022-12-10T03:58:57;19.20;49.00
12477;DHT22;6303;51.504;6.300;2022-12-10T04:01:24;19.50;49.10
12477;DHT22;6303;51.504;6.300;2022-12-10T04:03:51;19.20;48.80
12477;DHT22;6303;51.504;6.300;2022-12-10T04:06:20;19.20;48.40
12477;DHT22;6303;51.504;6.300;2022-12-10T04:08:48;19.20;48.80
12477;DHT22;6303;51.504;6.300;2022-12-10T04:11:15;19.20;48.80
12477;DHT22;6303;51.504;6.300;2022-12-10T04:13:43;19.20;48.80
12477;DHT22;6303;51.504;6.300;2022-12-10T04:16:28;19.20;48.90
12477;DHT22;6303;51.504;6.300;2022-12-10T04:18:58;19.20;49.00
12477;DHT22;6303;51.504;6.300;2022-12-10T04:21:28;19.20;49.00
12477;DHT22;6303;51.504;6.300;2022-12-10T04:24:29;19.20;49.00
12477;DHT22;6303;51.504;6.300;2022-12-10T04:27:17;19.20;49.00
12477;DHT22;6303;51.504;6.300;2022-12-10T04:29:45;19.20;48.80
12477;DHT22;6303;51.504;6.300;2022-12-10T04:32:12;19.20;48.80
12477;DHT22;6303;51.504;6.300;2022-12-10T04:34:39;19.20;48.80
12477;DHT22;6303;51.504;6.300;2022-12-10T04:37:07;19.20;48.80
12477;DHT22;6303;51.504;6.300;2022-12-10T04:39:36;19.20;48.90
12477;DHT22;6303;51.504;6.300;2022-12-10T04:42:04;19.20;48.90
12477;DHT22;6303;51.504;6.300;2022-12-10T04:44:31;19.20;49.00
12477;DHT22;6303;51.504;6.300;2022-12-10T04:46:58;19.20;48.90
12477;DHT22;6303;51.504;6.300;2022-12-10T04:49:25;19.20;48.90
12477;DHT22;6303;51.504;6.300;2022-12-10T04:51:52;19.20;48.90
12477;DHT22;6303;51.504;6.300;2022-12-10T04:54:22;19.20;48.90
12477;DHT22;6303;51.504;6.300;2022-12-10T04:56:49;19.20;48.90
12477;DHT22;6303;51.504;6.300;2022-12-10T04:59:18;19.20;48.80
12477;DHT22;6303;51.504;6.300;2022-12-10T05:01:45;19.20;48.90
12477;DHT22;6303;51.504;6.300;2022-12-10T05:04:14;19.20;48.90
12477;DHT22;6303;51.504;6.300;2022-12-10T05:06:41;19.30;48.90
12477;DHT22;6303;51.504;6.300;2022-12-10T05:09:10;19.20;48.80
12477;DHT22;6303;51.504;6.300;2022-12-10T05:11:39;19.20;48.70
12477;DHT22;6303;51.504;6.300;2022-12-10T05:14:08;19.20;48.70
12477;DHT22;6303;51.504;6.300;2022-12-10T05:16:36;19.20;48.70
12477;DHT22;6303;51.504;6.300;2022-12-10T05:19:03;19.20;48.80
12477;DHT22;6303;51.504;6.300;2022-12-10T05:21:30;19.20;49.40
12477;DHT22;6303;51.504;6.300;2022-12-10T05:24:11;19.20;48.90
12477;DHT22;6303;51.504;6.300;2022-12-10T05:26:40;19.20;48.90
12477;DHT22;6303;51.504;6.300;2022-12-10T05:29:08;19.20;48.90
12477;DHT22;6303;51.504;6.300;2022-12-10T05:31:35;19.20;48.80
12477;DHT22;6303;51.504;6.300;2022-12-10T05:34:02;19.20;48.80
12477;DHT22;6303;51.504;6.300;2022-12-10T05:36:31;19.20;48.80
12477;DHT22;6303;51.504;6.300;2022-12-10T05:38:59;19.20;48.90
12477;DHT22;6303;51.504;6.300;2022-12-10T05:41:27;19.20;48.80
12477;DHT22;6303;51.504;6.300;2022-12-10T05:43:57;19.20;48.80
12477;DHT22;6303;51.504;6.300;2022-12-10T05:46:25;19.20;48.20
12477;DHT22;6303;51.504;6.300;2022-12-10T05:48:53;19.20;48.70
12477;DHT22;6303;51.504;6.300;2022-12-10T05:51:22;19.20;48.70
12477;DHT22;6303;51.504;6.300;2022-12-10T05:53:50;19.20;48.60
12477;DHT22;6303;51.504;6.300;2022-12-10T05:56:20;19.20;48.70
12477;DHT22;6303;51.504;6.300;2022-12-10T05:58:49;19.20;48.70
12477;DHT22;6303;51.504;6.300;2022-12-10T06:01:19;19.20;48.70
12477;DHT22;6303;51.504;6.300;2022-12-10T06:03:48;19.20;48.70
12477;DHT22;6303;51.504;6.300;2022-12-10T06:06:21;19.20;48.70
12477;DHT22;6303;51.504;6.300;2022-12-10T06:08:49;19.20;48.70
12477;DHT22;6303;51.504;6.300;2022-12-10T06:11:17;19.20;48.60
12477;DHT22;6303;51.504;6.300;2022-12-10T06:13:44;19.20;48.50
12477;DHT22;6303;51.504;6.300;2022-12-10T06:16:13;19.30;48.40
12477;DHT22;6303;51.504;6.300;2022-12-10T06:18:42;19.30;48.40
12477;DHT22;6303;51.504;6.300;2022-12-10T06:21:12;19.30;48.30
12477;DHT22;6303;51.504;6.300;2022-12-10T06:23:40;19.20;48.30
12477;DHT22;6303;51.504;6.300;2022-12-10T06:26:08;19.20;48.30
12477;DHT22;6303;51.504;6.300;2022-12-10T06:28:36;19.30;48.40
12477;DHT22;6303;51.504;6.300;2022-12-10T06:31:04;19.30;48.40
12477;DHT22;6303;51.504;6.300;2022-12-10T06:33:31;19.30;48.50
12477;DHT22;6303;51.504;6.300;2022-12-10T06:36:02;19.30;48.40
12477;DHT22;6303;51.504;6.300;2022-12-10T06:38:29;19.30;48.30
12477;DHT22;6303;51.504;6.300;2022-12-10T06:40:56;19.30;48.20
12477;DHT22;6303;51.504;6.300;2022-12-10T06:43:23;19.30;48.20
12477;DHT22;6303;51.504;6.300;2022-12-10T06:45:50;19.30;48.20
12477;DHT22;6303;51.504;6.300;2022-12-10T06:48:17;19.30;48.30
12477;DHT22;6303;51.504;6.300;2022-12-10T06:50:44;19.30;48.30
12477;DHT22;6303;51.504;6.300;2022-12-10T06:53:13;19.30;48.30
12477;DHT22;6303;51.504;6.300;2022-12-10T06:55:40;19.20;48.30
12477;DHT22;6303;51.504;6.300;2022-12-10T06:58:07;19.20;48.20
12477;DHT22;6303;51.504;6.300;2022-12-10T07:00:34;19.20;48.30
12477;DHT22;6303;51.504;6.300;2022-12-10T07:03:01;19.20;48.40
12477;DHT22;6303;51.504;6.300;2022-12-10T07:05:28;19.20;48.50
12477;DHT22;6303;51.504;6.300;2022-12-10T07:07:55;19.20;48.50
12477;DHT22;6303;51.504;6.300;2022-12-10T07:10:23;19.20;48.50
12477;DHT22;6303;51.504;6.300;2022-12-10T07:12:50;19.20;48.60
12477;DHT22;6303;51.504;6.300;2022-12-10T07:15:17;19.20;48.50
12477;DHT22;6303;51.504;6.300;2022-12-10T07:17:45;19.20;48.50
12477;DHT22;6303;51.504;6.300;2022-12-10T07:20:12;20.50;49.00
12477;DHT22;6303;51.504;6.300;2022-12-10T07:22:39;19.20;48.40
12477;DHT22;6303;51.504;6.300;2022-12-10T07:25:06;19.20;48.50
12477;DHT22;6303;51.504;6.300;2022-12-10T07:27:35;19.20;48.40
12477;DHT22;6303;51.504;6.300;2022-12-10T07:30:03;19.20;48.20
12477;DHT22;6303;51.504;6.300;2022-12-10T07:32:30;19.20;48.10
12477;DHT22;6303;51.504;6.300;2022-12-10T07:34:57;19.20;48.10
12477;DHT22;6303;51.504;6.300;2022-12-10T07:37:24;19.20;48.30
12477;DHT22;6303;51.504;6.300;2022-12-10T07:39:51;19.20;48.30
12477;DHT22;6303;51.504;6.300;2022-12-10T07:42:18;19.20;48.30
12477;DHT22;6303;51.504;6.300;2022-12-10T07:44:47;19.20;48.40
12477;DHT22;6303;51.504;6.300;2022-12-10T07:47:15;19.20;48.40
12477;DHT22;6303;51.504;6.300;2022-12-10T07:49:42;19.20;48.50
12477;DHT22;6303;51.504;6.300;2022-12-10T07:52:09;19.20;48.60
12477;DHT22;6303;51.504;6.300;2022-12-10T07:54:36;19.20;48.60
12477;DHT22;6303;51.504;6.300;2022-12-10T07:57:03;19.20;48.60
12477;DHT22;6303;51.504;6.300;2022-12-10T07:59:30;19.20;48.60
12477;DHT22;6303;51.504;6.300;2022-12-10T08:01:58;19.20;48.30
12477;DHT22;6303;51.504;6.300;2022-12-10T08:04:27;19.20;48.20
12477;DHT22;6303;51.504;6.300;2022-12-10T08:06:55;19.20;48.30
12477;DHT22;6303;51.504;6.300;2022-12-10T08:09:22;19.20;48.20
12477;DHT22;6303;51.504;6.300;2022-12-10T08:11:49;19.20;48.20
12477;DHT22;6303;51.504;6.300;2022-12-10T08:14:16;19.20;48.40
12477;DHT22;6303;51.504;6.300;2022-12-10T08:16:43;19.20;48.40
12477;DHT22;6303;51.504;6.300;2022-12-10T08:19:12;19.20;48.40
12477;DHT22;6303;51.504;6.300;2022-12-10T08:21:39;19.20;48.50
12477;DHT22;6303;51.504;6.300;2022-12-10T08:24:06;19.20;48.50
12477;DHT22;6303;51.504;6.300;2022-12-10T08:26:33;19.20;48.40
12477;DHT22;6303;51.504;6.300;2022-12-10T08:29:01;20.80;49.20
12477;DHT22;6303;51.504;6.300;2022-12-10T08:31:29;19.20;48.60
12477;DHT22;6303;51.504;6.300;2022-12-10T08:33:57;19.20;48.60
12477;DHT22;6303;51.504;6.300;2022-12-10T08:36:25;19.20;48.70
12477;DHT22;6303;51.504;6.300;2022-12-10T08:38:52;19.20;48.70
12477;DHT22;6303;51.504;6.300;2022-12-10T08:41:21;19.20;48.70
12477;DHT22;6303;51.504;6.300;2022-12-10T08:43:51;19.20;48.70
12477;DHT22;6303;51.504;6.300;2022-12-10T08:46:19;19.30;48.10
12477;DHT22;6303;51.504;6.300;2022-12-10T08:48:46;19.20;48.50
12477;DHT22;6303;51.504;6.300;2022-12-10T08:51:15;19.30;48.70
12477;DHT22;6303;51.504;6.300;2022-12-10T08:53:45;19.20;48.60
12477;DHT22;6303;51.504;6.300;2022-12-10T08:56:12;19.30;48.10
12477;DHT22;6303;51.504;6.300;2022-12-10T08:58:40;19.20;48.60
12477;DHT22;6303;51.504;6.300;2022-12-10T09:01:08;19.20;48.60
12477;DHT22;6303;51.504;6.300;2022-12-10T09:03:35;19.20;48.50
12477;DHT22;6303;51.504;6.300;2022-12-10T09:06:04;19.20;48.50
12477;DHT22;6303;51.504;6.300;2022-12-10T09:08:32;19.20;48.50
12477;DHT22;6303;51.504;6.300;2022-12-10T09:11:06;19.30;48.50
12477;DHT22;6303;51.504;6.300;2022-12-10T09:13:34;19.20;48.50
12477;DHT22;6303;51.504;6.300;2022-12-10T09:16:01;19.20;48.70
12477;DHT22;6303;51.504;6.300;2022-12-10T09:18:28;19.20;48.60
12477;DHT22;6303;51.504;6.300;2022-12-10T09:20:55;19.20;48.70
12477;DHT22;6303;51.504;6.300;2022-12-10T09:23:23;19.20;48.60
12477;DHT22;6303;51.504;6.300;2022-12-10T09:25:50;19.30;48.70
12477;DHT22;6303;51.504;6.300;2022-12-10T09:28:18;19.30;48.80
12477;DHT22;6303;51.504;6.300;2022-12-10T09:30:54;19.30;48.80
12477;DHT22;6303;51.504;6.300;2022-12-10T09:33:22;19.30;48.90
12477;DHT22;6303;51.504;6.300;2022-12-10T09:35:49;19.30;48.90
12477;DHT22;6303;51.504;6.300;2022-12-10T09:38:16;19.30;48.80
12477;DHT22;6303;51.504;6.300;2022-12-10T09:40:46;19.30;48.80
12477;DHT22;6303;51.504;6.300;2022-12-10T09:43:22;19.30;48.70
12477;DHT22;6303;51.504;6.300;2022-12-10T09:46:01;19.40;48.80
12477;DHT22;6303;51.504;6.300;2022-12-10T09:48:37;19.40;48.60
12477;DHT22;6303;51.504;6.300;2022-12-10T09:51:10;19.50;48.70
12477;DHT22;6303;51.504;6.300;2022-12-10T09:53:39;19.50;48.40
12477;DHT22;6303;51.504;6.300;2022-12-10T09:56:19;19.50;47.90
12477;DHT22;6303;51.504;6.300;2022-12-10T09:58:49;19.50;48.40
12477;DHT22;6303;51.504;6.300;2022-12-10T10:01:19;19.50;48.30
12477;DHT22;6303;51.504;6.300;2022-12-10T10:03:48;19.50;48.00
12477;DHT22;6303;51.504;6.300;2022-12-10T10:06:16;19.50;48.00
12477;DHT22;6303;51.504;6.300;2022-12-10T10:08:46;19.50;48.00
12477;DHT22;6303;51.504;6.300;2022-12-10T10:11:18;19.50;48.00
12477;DHT22;6303;51.504;6.300;2022-12-10T10:13:51;19.50;47.80
12477;DHT22;6303;51.504;6.300;2022-12-10T10:16:23;19.40;47.80
12477;DHT22;6303;51.504;6.300;2022-12-10T10:18:54;19.40;47.70
12477;DHT22;6303;51.504;6.300;2022-12-10T10:21:24;19.40;47.70
12477;DHT22;6303;51.504;6.300;2022-12-10T10:23:52;19.40;47.70
12477;DHT22;6303;51.504;6.300;2022-12-10T10:26:19;19.40;47.70
12477;DHT22;6303;51.504;6.300;2022-12-10T10:28:47;21.70;48.80
12477;DHT22;6303;51.504;6.300;2022-12-10T10:31:23;19.40;47.70
12477;DHT22;6303;51.504;6.300;2022-12-10T10:33:53;19.40;47.80
12477;DHT22;6303;51.504;6.300;2022-12-10T10:36:26;19.40;48.00
12477;DHT22;6303;51.504;6.300;2022-12-10T10:38:55;19.40;48.10
12477;DHT22;6303;51.504;6.300;2022-12-10T10:41:23;19.40;48.00
12477;DHT22;6303;51.504;6.300;2022-12-10T10:43:54;19.40;47.90
12477;DHT22;6303;51.504;6.300;2022-12-10T10:46:26;19.40;47.80
12477;DHT22;6303;51.504;6.300;2022-12-10T10:49:13;19.40;47.80
12477;DHT22;6303;51.504;6.300;2022-12-10T10:51:43;19.40;47.80
12477;DHT22;6303;51.504;6.300;2022-12-10T10:54:11;20.50;48.30
12477;DHT22;6303;51.504;6.300;2022-12-10T10:56:41;19.40;47.70
12477;DHT22;6303;51.504;6.300;2022-12-10T10:59:26;19.40;47.70
12477;DHT22;6303;51.504;6.300;2022-12-10T11:02:00;19.40;48.30
12477;DHT22;6303;51.504;6.300;2022-12-10T11:04:30;19.40;48.20
12477;DHT22;6303;51.504;6.300;2022-12-10T11:07:01;19.40;47.60
12477;DHT22;6303;51.504;6.300;2022-12-10T11:09:31;19.40;47.60
12477;DHT22;6303;51.504;6.300;2022-12-10T11:12:00;19.40;47.70
12477;DHT22;6303;51.504;6.300;2022-12-10T11:14:31;19.30;47.70
12477;DHT22;6303;51.504;6.300;2022-12-10T11:17:17;19.30;47.90
12477;DHT22;6303;51.504;6.300;2022-12-10T11:19:54;19.30;47.90
12477;DHT22;6303;51.504;6.300;2022-12-10T11:22:23;19.40;47.90
12477;DHT22;6303;51.504;6.300;2022-12-10T11:24:50;19.40;47.80
12477;DHT22;6303;51.504;6.300;2022-12-10T11:27:26;19.40;47.80
12477;DHT22;6303;51.504;6.300;2022-12-10T11:30:00;19.40;48.00
12477;DHT22;6303;51.504;6.300;2022-12-10T11:32:43;19.40;48.10
12477;DHT22;6303;51.504;6.300;2022-12-10T11:35:14;19.40;48.20
12477;DHT22;6303;51.504;6.300;2022-12-10T11:37:48;19.40;48.40
12477;DHT22;6303;51.504;6.300;2022-12-10T11:40:28;19.40;48.40
12477;DHT22;6303;51.504;6.300;2022-12-10T11:43:04;19.40;48.60
12477;DHT22;6303;51.504;6.300;2022-12-10T11:45:47;19.50;48.60
12477;DHT22;6303;51.504;6.300;2022-12-10T11:48:27;19.50;48.60
12477;DHT22;6303;51.504;6.300;2022-12-10T11:51:00;19.50;48.60
12477;DHT22;6303;51.504;6.300;2022-12-10T11:53:45;19.60;48.50
12477;DHT22;6303;51.504;6.300;2022-12-10T11:56:20;19.60;48.40
12477;DHT22;6303;51.504;6.300;2022-12-10T11:58:59;19.70;48.40
12477;DHT22;6303;51.504;6.300;2022-12-10T12:01:44;19.70;48.40
12477;DHT22;6303;51.504;6.300;2022-12-10T12:04:38;19.70;48.40
12477;DHT22;6303;51.504;6.300;2022-12-10T12:07:22;19.80;48.30
12477;DHT22;6303;51.504;6.300;2022-12-10T12:10:21;19.80;48.30
12477;DHT22;6303;51.504;6.300;2022-12-10T12:12:57;19.80;48.30
12477;DHT22;6303;51.504;6.300;2022-12-10T12:15:29;19.80;48.20
12477;DHT22;6303;51.504;6.300;2022-12-10T12:18:00;19.80;48.30
12477;DHT22;6303;51.504;6.300;2022-12-10T12:20:33;19.80;48.40
12477;DHT22;6303;51.504;6.300;2022-12-10T12:23:04;19.80;48.60
12477;DHT22;6303;51.504;6.300;2022-12-10T12:25:36;19.80;48.80
12477;DHT22;6303;51.504;6.300;2022-12-10T12:28:11;19.80;48.80
12477;DHT22;6303;51.504;6.300;2022-12-10T12:30:42;19.80;48.80
12477;DHT22;6303;51.504;6.300;2022-12-10T12:33:16;19.80;48.80
12477;DHT22;6303;51.504;6.300;2022-12-10T12:35:50;19.80;48.80
12477;DHT22;6303;51.504;6.300;2022-12-10T12:38:28;19.80;48.70
12477;DHT22;6303;51.504;6.300;2022-12-10T12:41:00;19.80;48.70
12477;DHT22;6303;51.504;6.300;2022-12-10T12:43:37;19.80;48.80
12477;DHT22;6303;51.504;6.300;2022-12-10T12:46:12;19.80;48.90
12477;DHT22;6303;51.504;6.300;2022-12-10T12:48:47;19.80;48.80
12477;DHT22;6303;51.504;6.300;2022-12-10T12:51:21;19.80;48.70
12477;DHT22;6303;51.504;6.300;2022-12-10T12:53:50;19.80;48.50
12477;DHT22;6303;51.504;6.300;2022-12-10T12:56:23;21.20;49.20
12477;DHT22;6303;51.504;6.300;2022-12-10T12:59:02;19.80;48.50
12477;DHT22;6303;51.504;6.300;2022-12-10T13:01:34;19.80;48.40
12477;DHT22;6303;51.504;6.300;2022-12-10T13:04:04;19.80;48.60
12477;DHT22;6303;51.504;6.300;2022-12-10T13:06:35;19.80;48.50
12477;DHT22;6303;51.504;6.300;2022-12-10T13:09:25;19.80;48.40
12477;DHT22;6303;51.504;6.300;2022-12-10T13:12:26;19.80;48.30
12477;DHT22;6303;51.504;6.300;2022-12-10T13:15:02;19.80;48.30
12477;DHT22;6303;51.504;6.300;2022-12-10T13:17:33;19.80;48.40
12477;DHT22;6303;51.504;6.300;2022-12-10T13:20:32;19.80;48.60
12477;DHT22;6303;51.504;6.300;2022-12-10T13:23:02;19.80;48.60
12477;DHT22;6303;51.504;6.300;2022-12-10T13:25:42;19.80;48.60
12477;DHT22;6303;51.504;6.300;2022-12-10T13:28:27;19.70;48.50
12477;DHT22;6303;51.504;6.300;2022-12-10T13:31:18;19.70;48.50
12477;DHT22;6303;51.504;6.300;2022-12-10T13:33:51;19.70;48.40
12477;DHT22;6303;51.504;6.300;2022-12-10T13:36:26;19.70;48.30
12477;DHT22;6303;51.504;6.300;2022-12-10T13:39:20;19.70;48.20
12477;DHT22;6303;51.504;6.300;2022-12-10T13:42:22;19.60;48.20
12477;DHT22;6303;51.504;6.300;2022-12-10T13:45:34;19.70;48.30
12477;DHT22;6303;51.504;6.300;2022-12-10T13:48:25;19.60;48.60
12477;DHT22;6303;51.504;6.300;2022-12-10T13:51:07;19.50;48.80
12477;DHT22;6303;51.504;6.300;2022-12-10T13:53:43;19.50;48.70
12477;DHT22;6303;51.504;6.300;2022-12-10T13:56:19;19.50;48.60
12477;DHT22;6303;51.504;6.300;2022-12-10T13:58:56;19.60;48.70
12477;DHT22;6303;51.504;6.300;2022-12-10T14:01:33;19.60;48.60
12477;DHT22;6303;51.504;6.300;2022-12-10T14:04:21;19.60;48.60
12477;DHT22;6303;51.504;6.300;2022-12-10T14:06:53;19.60;48.80
12477;DHT22;6303;51.504;6.300;2022-12-10T14:09:23;19.70;48.80
12477;DHT22;6303;51.504;6.300;2022-12-10T14:11:56;19.70;48.50
12477;DHT22;6303;51.504;6.300;2022-12-10T14:14:28;19.80;48.30
12477;DHT22;6303;51.504;6.300;2022-12-10T14:17:00;19.80;48.30
12477;DHT22;6303;51.504;6.300;2022-12-10T14:19:28;19.90;48.20
12477;DHT22;6303;51.504;6.300;2022-12-10T14:21:56;19.90;48.00
12477;DHT22;6303;51.504;6.300;2022-12-10T14:24:32;20.00;47.90
12477;DHT22;6303;51.504;6.300;2022-12-10T14:27:05;20.00;47.60
12477;DHT22;6303;51.504;6.300;2022-12-10T14:29:35;20.00;47.50
12477;DHT22;6303;51.504;6.300;2022-12-10T14:32:03;20.00;47.70
12477;DHT22;6303;51.504;6.300;2022-12-10T14:34:31;19.90;47.80
12477;DHT22;6303;51.504;6.300;2022-12-10T14:37:01;19.90;48.00
12477;DHT22;6303;51.504;6.300;2022-12-10T14:39:32;19.90;48.10
12477;DHT22;6303;51.504;6.300;2022-12-10T14:42:04;19.80;48.20
12477;DHT22;6303;51.504;6.300;2022-12-10T14:44:34;19.80;48.30
12477;DHT22;6303;51.504;6.300;2022-12-10T14:47:06;19.80;48.40
12477;DHT22;6303;51.504;6.300;2022-12-10T14:49:38;19.80;48.60
12477;DHT22;6303;51.504;6.300;2022-12-10T14:52:10;19.80;48.60
12477;DHT22;6303;51.504;6.300;2022-12-10T14:54:38;19.80;48.70
12477;DHT22;6303;51.504;6.300;2022-12-10T14:57:11;19.80;48.70
12477;DHT22;6303;51.504;6.300;2022-12-10T14:59:43;19.80;48.70
12477;DHT22;6303;51.504;6.300;2022-12-10T15:02:17;18.80;48.30
12477;DHT22;6303;51.504;6.300;2022-12-10T15:04:47;19.80;48.80
12477;DHT22;6303;51.504;6.300;2022-12-10T15:07:18;19.80;48.80
12477;DHT22;6303;51.504;6.300;2022-12-10T15:09:46;19.80;48.90
12477;DHT22;6303;51.504;6.300;2022-12-10T15:12:23;19.70;48.80
12477;DHT22;6303;51.504;6.300;2022-12-10T15:14:53;19.70;48.70
12477;DHT22;6303;51.504;6.300;2022-12-10T15:17:39;19.70;48.70
12477;DHT22;6303;51.504;6.300;2022-12-10T15:20:18;19.70;48.50
12477;DHT22;6303;51.504;6.300;2022-12-10T15:22:45;19.70;48.40
12477;DHT22;6303;51.504;6.300;2022-12-10T15:25:22;19.70;48.30
12477;DHT22;6303;51.504;6.300;2022-12-10T15:27:56;19.70;48.20
12477;DHT22;6303;51.504;6.300;2022-12-10T15:30:25;19.70;48.30
12477;DHT22;6303;51.504;6.300;2022-12-10T15:32:58;19.70;48.20
12477;DHT22;6303;51.504;6.300;2022-12-10T15:35:26;19.70;48.20
12477;DHT22;6303;51.504;6.300;2022-12-10T15:37:54;19.70;48.10
12477;DHT22;6303;51.504;6.300;2022-12-10T15:40:27;19.70;48.10
12477;DHT22;6303;51.504;6.300;2022-12-10T15:43:11;19.70;48.30
12477;DHT22;6303;51.504;6.300;2022-12-10T15:45:41;19.60;48.50
12477;DHT22;6303;51.504;6.300;2022-12-10T15:48:10;19.60;48.50
12477;DHT22;6303;51.504;6.300;2022-12-10T15:50:37;19.60;48.50
12477;DHT22;6303;51.504;6.300;2022-12-10T15:53:05;19.60;48.50
12477;DHT22;6303;51.504;6.300;2022-12-10T15:55:32;19.60;48.50
12477;DHT22;6303;51.504;6.300;2022-12-10T15:58:00;20.90;49.10
12477;DHT22;6303;51.504;6.300;2022-12-10T16:00:27;19.60;48.50
12477;DHT22;6303;51.504;6.300;2022-12-10T16:02:56;19.60;48.60
12477;DHT22;6303;51.504;6.300;2022-12-10T16:05:26;19.60;48.70
12477;DHT22;6303;51.504;6.300;2022-12-10T16:07:56;19.50;48.70
12477;DHT22;6303;51.504;6.300;2022-12-10T16:10:24;19.50;48.80